Time;durP1;ratioP1;P1;durP2;ratioP2;P2;SDS_P1;SDS_P2;PMS_P1;PMS_P2;Temp;Humidity;BMP_temperature;BMP_pressure;BME280_temperature;BME280_humidity;BME280_pressure;Samples;Min_cycle;Max_cycle;Signal;HPM_P1;HPM_P2
2022/05/15 00:00:51;;;;;;;7.17;6.57;;;;;;;14.14;76.65;101416.81;5136661;27;20176;-67
2022/05/15 00:03:21;;;;;;;11.87;7.43;;;;;;;14.11;76.85;101414.34;5136567;27;20181;-67
2022/05/15 00:05:59;;;;;;;10.70;7.20;;;;;;;14.09;76.89;101410.94;5136211;27;20253;-67
2022/05/15 00:08:29;;;;;;;10.67;7.00;;;;;;;14.07;77.14;101404.84;5136404;27;20569;-67
2022/05/15 00:10:56;;;;;;;15.87;7.03;;;;;;;14.02;77.34;101403.28;5136064;27;20165;-67
2022/05/15 00:13:25;;;;;;;10.67;6.30;;;;;;;13.92;77.72;101407.25;5136657;27;20192;-67
2022/05/15 00:15:52;;;;;;;7.60;6.67;;;;;;;13.95;77.60;101409.75;5136285;27;20192;-67
2022/05/15 00:18:20;;;;;;;9.40;7.33;;;;;;;13.92;78.01;101411.66;5136213;27;20180;-67
2022/05/15 00:20:49;;;;;;;9.17;6.47;;;;;;;13.88;78.21;101405.69;5136512;27;20230;-67
2022/05/15 00:23:17;;;;;;;8.10;6.80;;;;;;;13.85;78.31;101413.69;5135897;27;20193;-67
2022/05/15 00:25:44;;;;;;;8.03;7.27;;;;;;;13.78;78.45;101407.84;5135881;27;20197;-67
2022/05/15 00:28:13;;;;;;;7.03;6.60;;;;;;;13.80;78.50;101401.69;5135671;27;20196;-67
2022/05/15 00:30:41;;;;;;;13.80;6.87;;;;;;;13.81;78.63;101408.66;5117303;27;20189;-67
2022/05/15 00:33:08;;;;;;;7.40;6.70;;;;;;;13.75;78.88;101401.88;5117257;27;20215;-67
2022/05/15 00:35:36;;;;;;;8.00;6.07;;;;;;;13.71;79.07;101395.88;5135634;27;20177;-67
2022/05/15 00:38:04;;;;;;;10.17;6.30;;;;;;;13.74;79.04;101401.03;5135850;27;20650;-67
2022/05/15 00:40:33;;;;;;;8.53;6.90;;;;;;;13.70;79.32;101398.56;5135505;27;20204;-67
2022/05/15 00:43:00;;;;;;;7.33;6.70;;;;;;;13.67;79.47;101403.97;5117111;27;20192;-67
2022/05/15 00:45:27;;;;;;;9.37;6.57;;;;;;;13.58;79.70;101401.75;5135430;27;20241;-67
2022/05/15 00:47:53;;;;;;;13.97;6.87;;;;;;;13.60;79.75;101398.13;5135314;27;20212;-67
2022/05/15 00:50:27;;;;;;;7.57;6.87;;;;;;;13.54;80.13;101400.16;5135286;27;20204;-67
2022/05/15 00:52:57;;;;;;;17.13;6.40;;;;;;;13.54;80.34;101394.91;5117500;27;20188;-67
2022/05/15 00:55:38;;;;;;;8.07;7.13;;;;;;;13.46;80.41;101403.97;5117173;27;20665;-67
2022/05/15 00:58:10;;;;;;;9.80;6.43;;;;;;;13.39;80.74;101396.41;5135402;27;20637;-67
2022/05/15 01:00:40;;;;;;;9.23;6.87;;;;;;;13.35;81.02;101402.69;5116787;27;20271;-67
2022/05/15 01:03:18;;;;;;;8.10;6.97;;;;;;;13.27;81.67;101400.41;5135069;27;20191;-67
2022/05/15 01:05:51;;;;;;;14.27;7.03;;;;;;;13.19;81.93;101395.41;5135673;27;20533;-67
2022/05/15 01:08:23;;;;;;;12.30;7.00;;;;;;;13.16;82.11;101392.06;5117420;27;20208;-67
2022/05/15 01:10:53;;;;;;;9.30;7.23;;;;;;;13.14;82.29;101397.38;5116803;27;20242;-67
2022/05/15 01:13:30;;;;;;;13.47;6.83;;;;;;;13.09;82.57;101393.25;5116837;27;20202;-67
2022/05/15 01:15:58;;;;;;;14.17;7.10;;;;;;;13.10;82.56;101393.19;5116759;27;20280;-67
2022/05/15 01:18:27;;;;;;;7.50;6.90;;;;;;;13.08;82.66;101402.06;5134991;27;20198;-67
2022/05/15 01:20:56;;;;;;;9.33;6.93;;;;;;;13.08;82.57;101399.44;5116344;27;20197;-67
2022/05/15 01:23:23;;;;;;;14.27;7.13;;;;;;;12.94;83.29;101392.94;5115429;27;20188;-67
2022/05/15 01:25:50;;;;;;;11.07;7.50;;;;;;;12.95;83.35;101397.28;5116207;27;20213;-67
2022/05/15 01:28:20;;;;;;;6.70;6.33;;;;;;;12.96;83.31;101390.25;5116098;27;20277;-67
2022/05/15 01:30:49;;;;;;;11.60;7.27;;;;;;;12.91;83.50;101395.69;5116256;27;20194;-67
2022/05/15 01:33:17;;;;;;;18.47;7.97;;;;;;;12.88;83.79;101395.81;5116189;27;20191;-67
2022/05/15 01:35:45;;;;;;;7.30;6.70;;;;;;;12.88;83.82;101395.81;5116451;27;20656;-67
2022/05/15 01:38:12;;;;;;;10.73;7.97;;;;;;;12.89;84.05;101392.28;5116077;27;20190;-67
2022/05/15 01:40:41;;;;;;;7.17;6.47;;;;;;;12.86;83.95;101396.81;5116320;27;20189;-67
2022/05/15 01:43:08;;;;;;;9.33;8.20;;;;;;;12.86;84.19;101396.81;5116027;27;20193;-67
2022/05/15 01:45:35;;;;;;;7.40;6.77;;;;;;;12.81;84.42;101396.13;5134380;27;20324;-67
2022/05/15 01:48:03;;;;;;;8.93;6.93;;;;;;;12.78;84.45;101393.59;5115875;27;20268;-67
2022/05/15 01:50:31;;;;;;;7.77;6.90;;;;;;;12.77;84.69;101397.16;5115992;27;20200;-67
2022/05/15 01:52:57;;;;;;;8.90;6.90;;;;;;;12.72;84.86;101392.09;5115901;28;20328;-67
2022/05/15 01:55:24;;;;;;;7.43;6.70;;;;;;;12.74;84.84;101399.91;5115897;27;20225;-67
2022/05/15 01:57:51;;;;;;;9.53;7.23;;;;;;;12.70;84.82;101399.16;5115883;28;20185;-67
2022/05/15 02:00:23;;;;;;;10.20;7.50;;;;;;;12.69;84.97;101394.81;5115805;28;20207;-67
2022/05/15 02:02:50;;;;;;;7.57;6.73;;;;;;;12.70;85.24;101390.44;5116686;28;20189;-67
2022/05/15 02:05:18;;;;;;;17.77;8.00;;;;;;;12.66;85.50;101392.34;5116109;28;20582;-67
2022/05/15 02:07:47;;;;;;;16.90;7.73;;;;;;;12.62;85.47;101399.47;5115752;28;20216;-67
2022/05/15 02:10:15;;;;;;;7.77;7.13;;;;;;;12.52;85.71;101395.50;5115763;28;20205;-67
2022/05/15 02:12:42;;;;;;;10.87;7.73;;;;;;;12.49;86.10;101392.09;5115767;28;20667;-67
2022/05/15 02:15:10;;;;;;;8.27;7.47;;;;;;;12.43;86.45;101392.34;5115803;28;20245;-67
2022/05/15 02:17:37;;;;;;;8.53;7.37;;;;;;;12.44;86.51;101387.06;5115716;28;20180;-67
2022/05/15 02:20:07;;;;;;;9.10;6.87;;;;;;;12.39;86.81;101391.63;5115682;28;20212;-67
2022/05/15 02:22:33;;;;;;;8.10;7.50;;;;;;;12.40;86.82;101383.66;5115645;28;20205;-67
2022/05/15 02:25:00;;;;;;;7.13;6.63;;;;;;;12.32;86.87;101391.00;5115664;28;20190;-67
2022/05/15 02:27:27;;;;;;;9.17;7.67;;;;;;;12.30;87.44;101381.47;5115449;28;20208;-67
2022/05/15 02:29:53;;;;;;;8.83;7.07;;;;;;;12.28;87.59;101381.50;5134459;28;20235;-67
2022/05/15 02:32:20;;;;;;;13.77;8.03;;;;;;;12.27;87.78;101386.81;5134266;28;20183;-67
2022/05/15 02:34:48;;;;;;;6.97;6.47;;;;;;;12.24;87.75;101394.81;5118244;27;20192;-67
2022/05/15 02:37:15;;;;;;;9.33;6.60;;;;;;;12.20;88.03;101386.19;5120435;27;20189;-67
2022/05/15 02:39:42;;;;;;;8.13;7.40;;;;;;;12.22;88.03;101378.28;5120257;27;20213;-67
2022/05/15 02:42:09;;;;;;;11.77;7.33;;;;;;;12.19;88.15;101391.50;5137880;27;20241;-67
2022/05/15 02:44:35;;;;;;;9.83;7.80;;;;;;;12.15;88.46;101390.78;5120233;27;20276;-67
2022/05/15 02:47:05;;;;;;;9.53;7.43;;;;;;;12.16;88.63;101389.88;5119266;27;20584;-67
2022/05/15 02:52:17;;;;;;;8.07;7.30;;;;;;;12.09;88.94;101391.84;5138286;27;20173;-67
2022/05/15 02:54:43;;;;;;;7.57;6.87;;;;;;;12.04;89.02;101391.16;5119183;27;20290;-67
2022/05/15 02:57:10;;;;;;;6.73;6.40;;;;;;;11.98;89.11;101391.38;5119195;27;20237;-67
2022/05/15 02:59:37;;;;;;;12.40;7.57;;;;;;;11.97;89.41;101387.03;5119067;27;20216;-67
2022/05/15 03:02:04;;;;;;;8.27;7.63;;;;;;;11.95;89.80;101390.66;5137500;27;20194;-67
2022/05/15 03:04:32;;;;;;;7.87;7.27;;;;;;;11.90;89.79;101392.56;5118998;27;20279;-67
2022/05/15 03:06:58;;;;;;;8.30;7.60;;;;;;;11.83;90.04;101387.53;5137364;27;20208;-67
2022/05/15 03:09:25;;;;;;;15.83;8.07;;;;;;;11.76;90.06;101390.41;5137497;27;20205;-67
2022/05/15 03:11:52;;;;;;;9.00;7.37;;;;;;;11.64;90.79;101381.19;5137617;27;20188;-67
2022/05/15 03:14:18;;;;;;;12.20;7.10;;;;;;;11.57;91.50;101384.94;5137235;27;20177;-67
2022/05/15 03:16:44;;;;;;;11.70;8.90;;;;;;;11.48;91.72;101388.72;5137482;27;20534;-67
2022/05/15 03:19:11;;;;;;;12.63;8.83;;;;;;;11.45;92.56;101385.38;5118747;27;20204;-67
2022/05/15 03:21:38;;;;;;;8.17;7.37;;;;;;;11.45;92.86;101391.47;5118937;27;20207;-67
2022/05/15 03:24:11;;;;;;;8.97;8.10;;;;;;;11.44;92.97;101383.66;5118586;27;20195;-67
2022/05/15 03:26:44;;;;;;;11.47;8.90;;;;;;;11.36;93.25;101383.94;5136907;27;20196;-67
2022/05/15 03:29:13;;;;;;;15.83;8.60;;;;;;;11.34;93.67;101384.88;5118548;27;20208;-67
2022/05/15 03:31:39;;;;;;;11.00;7.93;;;;;;;11.30;93.98;101382.38;5118574;27;20208;-67
2022/05/15 03:34:09;;;;;;;8.83;8.20;;;;;;;11.29;94.06;101385.91;5137458;27;20263;-67
2022/05/15 03:36:37;;;;;;;10.17;8.57;;;;;;;11.26;94.01;101379.88;5136888;27;20188;-67
2022/05/15 03:39:06;;;;;;;11.20;8.10;;;;;;;11.18;94.36;101380.13;5118348;27;20261;-67
2022/05/15 03:41:34;;;;;;;11.80;9.20;;;;;;;11.16;94.65;101376.72;5118291;27;20345;-67
2022/05/15 03:44:00;;;;;;;9.70;8.80;;;;;;;11.15;94.94;101374.16;5136951;27;20193;-67
2022/05/15 03:46:27;;;;;;;9.10;8.17;;;;;;;11.10;95.28;101371.69;5117152;27;20536;-67
2022/05/15 03:48:54;;;;;;;9.37;8.47;;;;;;;11.06;95.34;101370.06;5136459;27;20208;-67
2022/05/15 03:51:21;;;;;;;11.60;9.30;;;;;;;11.08;95.66;101375.28;5118134;27;20192;-67
2022/05/15 03:53:47;;;;;;;12.80;8.73;;;;;;;11.10;95.56;101362.97;5118082;27;20671;-67
2022/05/15 03:56:14;;;;;;;15.50;9.67;;;;;;;11.12;95.49;101363.75;5136434;27;20211;-67
2022/05/15 03:58:41;;;;;;;13.33;9.67;;;;;;;11.10;95.75;101363.81;5118636;27;20243;-67
2022/05/15 04:01:08;;;;;;;10.50;9.13;;;;;;;11.09;95.89;101364.72;5117995;27;20193;-67
2022/05/15 04:03:35;;;;;;;18.17;9.90;;;;;;;11.05;95.86;101368.34;5136329;27;20181;-67
2022/05/15 04:06:01;;;;;;;10.23;8.90;;;;;;;10.99;96.32;101366.78;5117724;27;20216;-67
2022/05/15 04:08:30;;;;;;;12.23;10.50;;;;;;;10.99;96.41;101366.78;5117520;27;20216;-67
2022/05/15 04:10:56;;;;;;;10.93;9.87;;;;;;;11.03;96.33;101360.53;5117647;27;20279;-67
2022/05/15 04:13:23;;;;;;;11.33;10.27;;;;;;;11.05;96.48;101367.50;5118314;27;20192;-67
2022/05/15 04:15:50;;;;;;;12.73;10.77;;;;;;;11.10;96.51;101368.19;5117671;27;20241;-67
2022/05/15 04:18:17;;;;;;;17.70;10.17;;;;;;;11.12;96.61;101369.00;5135981;27;20173;-67
2022/05/15 04:20:43;;;;;;;11.43;9.93;;;;;;;11.13;96.69;101366.31;5117613;27;20196;-67
2022/05/15 04:23:10;;;;;;;11.53;10.10;;;;;;;11.14;96.68;101361.94;5117515;27;20185;-67
2022/05/15 04:25:36;;;;;;;10.03;9.07;;;;;;;11.14;96.86;101356.69;5136001;27;20630;-67
2022/05/15 04:28:03;;;;;;;16.27;9.97;;;;;;;11.12;96.99;101362.00;5136033;27;20610;-67
2022/05/15 04:30:30;;;;;;;13.83;9.93;;;;;;;11.15;96.92;101363.69;5117371;27;20600;-67
2022/05/15 04:32:56;;;;;;;20.17;10.17;;;;;;;11.15;97.04;101369.78;5117368;27;20191;-67
2022/05/15 04:35:23;;;;;;;12.20;10.37;;;;;;;11.21;96.96;101364.28;5117189;27;20242;-67
2022/05/15 04:37:51;;;;;;;16.10;9.80;;;;;;;11.20;96.99;101370.44;5135582;27;20181;-67
2022/05/15 04:40:20;;;;;;;17.53;11.17;;;;;;;11.24;97.02;101369.47;5135587;27;20208;-67
2022/05/15 04:42:46;;;;;;;12.10;10.87;;;;;;;11.26;96.94;101367.63;5135885;27;20561;-67
2022/05/15 04:45:13;;;;;;;12.60;10.53;;;;;;;11.35;97.01;101369.06;5135593;27;20187;-67
2022/05/15 04:47:40;;;;;;;16.73;11.13;;;;;;;11.43;96.72;101363.56;5135366;27;20200;-67
2022/05/15 04:50:07;;;;;;;19.03;12.27;;;;;;;11.43;96.79;101363.56;5117306;27;20243;-67
2022/05/15 04:52:33;;;;;;;15.07;10.83;;;;;;;11.56;96.69;101370.09;5116917;27;20694;-67
2022/05/15 04:55:00;;;;;;;15.07;10.70;;;;;;;11.66;96.25;101362.78;5135281;27;20715;-67
2022/05/15 04:57:26;;;;;;;15.47;11.27;;;;;;;11.60;96.35;101361.25;5135016;27;20524;-67
2022/05/15 04:59:53;;;;;;;17.90;11.93;;;;;;;11.63;96.23;101361.13;5135441;27;20208;-67
2022/05/15 05:02:20;;;;;;;13.03;11.33;;;;;;;11.65;96.47;101366.34;5135386;27;20711;-67
2022/05/15 05:04:46;;;;;;;12.33;11.13;;;;;;;11.76;96.28;101369.41;5135927;27;20187;-67
2022/05/15 05:07:13;;;;;;;22.47;11.93;;;;;;;11.79;95.92;101378.06;5135010;27;20650;-67
2022/05/15 05:09:39;;;;;;;16.77;11.90;;;;;;;11.85;95.86;101380.47;5134935;27;20196;-67
2022/05/15 05:12:06;;;;;;;20.20;13.07;;;;;;;11.93;95.88;101387.19;5134951;27;20176;-67
2022/05/15 05:14:33;;;;;;;25.17;12.67;;;;;;;11.95;96.08;101385.41;5135264;27;20544;-67
2022/05/15 05:16:59;;;;;;;14.97;12.47;;;;;;;12.06;95.35;101391.94;5134862;27;20229;-67
2022/05/15 05:19:26;;;;;;;15.13;11.67;;;;;;;12.10;95.49;101393.56;5135369;27;20669;-67
2022/05/15 05:21:52;;;;;;;18.13;12.43;;;;;;;12.19;95.52;101397.59;5135393;27;20173;-67
2022/05/15 05:24:20;;;;;;;15.57;12.53;;;;;;;12.38;94.55;101397.78;5135051;27;20176;-67
2022/05/15 05:26:46;;;;;;;16.67;12.63;;;;;;;12.39;94.18;101397.72;5134524;27;20189;-67
2022/05/15 05:29:13;;;;;;;13.33;12.03;;;;;;;12.41;94.10;101397.66;5134712;27;20208;-67
2022/05/15 05:31:45;;;;;;;32.30;14.77;;;;;;;12.55;93.52;101402.38;5134853;27;20173;-67
2022/05/15 05:34:12;;;;;;;17.27;12.13;;;;;;;12.50;94.07;101409.56;5134618;27;20184;-67
2022/05/15 05:36:39;;;;;;;23.90;12.67;;;;;;;12.61;93.60;101407.41;5134704;27;20177;-67
2022/05/15 05:39:06;;;;;;;16.53;12.40;;;;;;;12.72;93.38;101396.50;5134479;27;20203;-67
2022/05/15 05:41:32;;;;;;;12.23;11.10;;;;;;;12.75;93.41;101401.63;5135074;27;20186;-67
2022/05/15 05:44:00;;;;;;;12.87;11.60;;;;;;;12.84;93.89;101403.88;5134546;27;20177;-67
2022/05/15 05:46:28;;;;;;;14.67;13.13;;;;;;;12.97;93.25;101397.22;5134737;27;20196;-67
2022/05/15 05:48:56;;;;;;;20.77;13.53;;;;;;;13.06;92.25;101393.34;5134619;27;20210;-67
2022/05/15 05:51:23;;;;;;;19.10;13.70;;;;;;;13.12;92.50;101401.00;5134444;27;20182;-67
2022/05/15 05:53:49;;;;;;;13.73;12.43;;;;;;;13.16;91.83;101399.97;5134687;27;20182;-67
2022/05/15 05:56:16;;;;;;;18.57;12.63;;;;;;;13.27;92.40;101407.44;5134334;27;20181;-67
2022/05/15 05:58:47;;;;;;;14.73;12.87;;;;;;;13.38;92.33;101403.44;5134420;27;20262;-67
2022/05/15 06:01:14;;;;;;;13.23;11.97;;;;;;;13.54;92.33;101405.44;5134288;27;20259;-67
2022/05/15 06:06:26;;;;;;;14.90;13.27;;;;;;;13.72;91.41;101397.59;5134811;28;20504;-67
2022/05/15 06:08:53;;;;;;;14.73;13.20;;;;;;;13.89;91.04;101406.53;5135376;27;20214;-68
2022/05/15 06:11:20;;;;;;;17.87;13.30;;;;;;;13.99;89.66;101394.66;5138484;27;20210;-67
2022/05/15 06:13:46;;;;;;;19.80;12.63;;;;;;;14.04;89.40;101403.22;5138447;27;20188;-67
2022/05/15 06:16:13;;;;;;;26.70;14.20;;;;;;;14.15;89.38;101403.59;5138934;27;20232;-67
2022/05/15 06:18:40;;;;;;;19.57;13.80;;;;;;;14.23;88.40;101406.75;5138244;27;20685;-67
2022/05/15 06:21:07;;;;;;;14.77;12.30;;;;;;;14.30;88.61;101402.06;5138291;27;20189;-67
2022/05/15 06:23:38;;;;;;;13.77;11.87;;;;;;;14.42;88.91;101401.47;5138525;27;20608;-67
2022/05/15 06:26:05;;;;;;;18.83;13.03;;;;;;;14.59;88.36;101404.22;5138190;27;20200;-67
2022/05/15 06:28:34;;;;;;;17.50;12.40;;;;;;;14.74;87.99;101399.16;5138280;27;20291;-68
2022/05/15 06:31:02;;;;;;;13.47;11.67;;;;;;;14.85;86.63;101395.06;5138124;27;20200;-68
2022/05/15 06:33:30;;;;;;;13.67;11.63;;;;;;;14.98;86.05;101399.75;5138547;27;20739;-68
2022/05/15 06:35:58;;;;;;;13.40;12.13;;;;;;;15.09;86.03;101400.09;5138223;27;20200;-68
2022/05/15 06:38:25;;;;;;;11.97;11.10;;;;;;;15.25;85.04;101402.81;5138116;27;20205;-68
2022/05/15 06:40:52;;;;;;;26.47;11.87;;;;;;;15.39;84.01;101410.88;5137883;27;20659;-68
2022/05/15 06:43:18;;;;;;;16.83;11.90;;;;;;;15.51;84.23;101404.16;5138746;27;20528;-68
2022/05/15 06:45:47;;;;;;;13.80;12.47;;;;;;;15.61;83.37;101403.63;5137738;27;20200;-68
2022/05/15 06:48:14;;;;;;;12.63;11.30;;;;;;;15.68;83.44;101401.53;5137854;27;20550;-68
2022/05/15 06:50:41;;;;;;;16.50;12.47;;;;;;;15.82;83.01;101406.09;5137985;27;20189;-67
2022/05/15 06:53:12;;;;;;;15.60;11.03;;;;;;;15.91;82.43;101405.59;5137697;27;20723;-67
2022/05/15 06:57:28;;;;;;;14.53;11.70;;;;;;;16.05;82.36;101405.72;5137958;27;20206;-67
2022/05/15 06:58:29;;;;;;;12.23;11.00;;;;;;;16.23;81.90;101403.91;5137650;27;20216;-68
2022/05/15 07:00:56;;;;;;;11.90;11.00;;;;;;;16.29;81.46;101398.28;5137522;27;20185;-67
2022/05/15 07:03:22;;;;;;;12.50;11.20;;;;;;;16.37;80.65;101404.00;5137478;27;20193;-67
2022/05/15 07:05:50;;;;;;;12.43;11.13;;;;;;;16.48;80.49;101398.13;5137975;27;20336;-67
2022/05/15 07:08:17;;;;;;;11.20;10.30;;;;;;;16.58;80.76;101395.84;5137523;27;20208;-67
2022/05/15 07:10:44;;;;;;;10.80;10.10;;;;;;;16.72;80.39;101395.97;5137626;27;20180;-67
2022/05/15 07:13:11;;;;;;;11.63;10.30;;;;;;;16.81;80.37;101394.59;5137831;27;20180;-67
2022/05/15 07:15:38;;;;;;;11.37;10.20;;;;;;;16.91;79.71;101391.31;5137529;27;20542;-67
2022/05/15 07:18:06;;;;;;;14.63;10.87;;;;;;;17.01;79.23;101389.88;5137128;27;20181;-68
2022/05/15 07:20:33;;;;;;;11.77;10.50;;;;;;;17.14;79.29;101403.22;5137121;27;20188;-68
2022/05/15 07:23:00;;;;;;;11.47;9.60;;;;;;;17.26;79.12;101396.38;5137112;27;20193;-68
2022/05/15 07:25:27;;;;;;;13.73;10.63;;;;;;;17.38;77.46;101395.66;5137270;27;20238;-68
2022/05/15 07:27:54;;;;;;;10.83;10.03;;;;;;;17.54;76.73;101392.94;5137223;27;20180;-68
2022/05/15 07:30:21;;;;;;;12.73;11.47;;;;;;;17.66;76.56;101399.31;5136936;27;20212;-68
2022/05/15 07:32:49;;;;;;;12.73;10.47;;;;;;;17.77;76.54;101395.09;5137163;27;20237;-68
2022/05/15 07:35:17;;;;;;;10.63;9.90;;;;;;;17.83;75.42;101392.06;5137144;27;20585;-68
2022/05/15 07:37:43;;;;;;;10.03;9.10;;;;;;;17.84;75.15;101396.44;5137739;27;20511;-68
2022/05/15 07:40:11;;;;;;;10.53;9.10;;;;;;;17.92;75.83;101389.81;5137022;27;20219;-68
2022/05/15 07:42:39;;;;;;;9.53;8.97;;;;;;;18.01;75.98;101390.13;5137294;27;20517;-68
2022/05/15 07:45:06;;;;;;;11.67;10.33;;;;;;;18.14;74.99;101391.06;5136644;27;20229;-68
2022/05/15 07:47:33;;;;;;;9.57;8.97;;;;;;;18.10;74.16;101384.25;5137188;27;20184;-68
2022/05/15 07:49:59;;;;;;;9.53;8.97;;;;;;;18.18;75.24;101386.41;5136454;27;20208;-68
2022/05/15 07:52:25;;;;;;;24.10;11.43;;;;;;;18.39;74.19;101385.06;5136500;27;20191;-68
2022/05/15 07:54:52;;;;;;;12.80;10.10;;;;;;;18.53;73.89;101381.53;5136545;27;20266;-68
2022/05/15 07:57:18;;;;;;;10.50;9.53;;;;;;;18.72;73.96;101386.56;5136713;27;20593;-68
2022/05/15 07:59:45;;;;;;;13.40;10.33;;;;;;;18.69;71.98;101382.28;5136575;27;20708;-68
2022/05/15 08:02:12;;;;;;;14.73;10.07;;;;;;;18.70;72.11;101389.28;5136609;27;20241;-68
2022/05/15 08:10:09;;;;;;;13.40;9.47;;;;;;;18.86;72.07;101380.31;5136110;27;20223;-68
2022/05/15 08:12:36;;;;;;;11.53;9.07;;;;;;;19.01;73.07;101383.81;5136145;27;20181;-68
2022/05/15 08:15:04;;;;;;;9.00;8.27;;;;;;;19.21;71.11;101375.34;5136094;27;20193;-68
2022/05/15 08:17:31;;;;;;;9.40;8.20;;;;;;;19.32;69.93;101380.78;5136369;27;20177;-68
2022/05/15 08:25:28;;;;;;;18.13;8.30;;;;;;;19.61;62.50;101380.66;5135837;27;20173;-68
2022/05/15 08:27:54;;;;;;;12.47;8.00;;;;;;;19.66;64.41;101383.84;5135923;27;20185;-68
2022/05/15 08:30:21;;;;;;;9.00;7.70;;;;;;;19.70;63.95;101382.66;5135686;27;20224;-68
2022/05/15 08:32:53;;;;;;;8.43;7.53;;;;;;;19.88;65.16;101385.88;5135677;27;20194;-68
2022/05/15 08:35:19;;;;;;;10.13;7.10;;;;;;;19.96;65.63;101373.75;5136243;27;20184;-68
2022/05/15 08:37:45;;;;;;;8.50;7.73;;;;;;;19.97;62.25;101380.75;5135628;27;20181;-68
2022/05/15 08:40:12;;;;;;;9.00;5.90;;;;;;;19.99;58.84;101378.81;5135494;27;20242;-67
2022/05/15 08:42:54;;;;;;;10.23;6.03;;;;;;;19.90;59.03;101375.97;5135578;27;20180;-67
2022/05/15 08:45:24;;;;;;;5.93;5.23;;;;;;;20.01;56.26;101368.13;5135840;27;20179;-67
2022/05/15 08:48:01;;;;;;;6.10;5.50;;;;;;;20.01;56.25;101368.97;5135494;27;20192;-67
2022/05/15 08:50:33;;;;;;;8.03;5.03;;;;;;;20.11;55.24;101363.84;5135506;27;20299;-67
2022/05/15 08:53:03;;;;;;;7.97;6.83;;;;;;;20.20;55.28;101367.63;5135386;27;20622;-67
2022/05/15 08:55:39;;;;;;;6.07;5.50;;;;;;;20.24;54.80;101363.81;5135842;27;20200;-67
2022/05/15 08:58:29;;;;;;;5.10;4.60;;;;;;;20.16;51.84;101371.50;5135823;27;20229;-68
2022/05/15 09:00:56;;;;;;;15.50;4.90;;;;;;;20.16;53.66;101360.84;5135542;27;20188;-67
2022/05/15 09:03:27;;;;;;;13.47;5.87;;;;;;;20.21;53.20;101366.66;5117503;27;20225;-67
2022/05/15 09:06:08;;;;;;;7.10;5.70;;;;;;;20.33;55.37;101368.47;5135344;27;20188;-67
2022/05/15 09:09:16;;;;;;;10.20;6.63;;;;;;;20.47;53.44;101359.53;5135271;27;20257;-67
2022/05/15 09:11:57;;;;;;;6.70;6.23;;;;;;;20.50;55.44;101360.16;5031889;28;20199;-68
2022/05/15 09:14:45;;;;;;;6.13;5.77;;;;;;;20.53;55.86;101367.06;5032106;28;20632;-68
2022/05/15 09:17:30;;;;;;;10.03;5.97;;;;;;;20.50;56.12;101360.16;5106861;27;20197;-67
2022/05/15 09:20:00;;;;;;;8.50;7.20;;;;;;;20.61;55.12;101359.38;5135065;27;20207;-66
2022/05/15 09:22:32;;;;;;;8.30;4.53;;;;;;;20.67;52.97;101355.41;5135373;27;20218;-66
2022/05/15 09:25:12;;;;;;;5.50;4.80;;;;;;;20.75;52.39;101358.34;5134819;27;20192;-67
2022/05/15 09:27:38;;;;;;;5.73;5.07;;;;;;;20.84;53.70;101357.66;5134644;27;20199;-67
2022/05/15 09:30:10;;;;;;;5.73;4.77;;;;;;;20.78;52.88;101353.63;5134610;27;20262;-66
2022/05/15 09:32:40;;;;;;;9.80;4.60;;;;;;;20.80;51.89;101356.22;5134922;27;20265;-67
2022/05/15 09:35:28;;;;;;;4.87;4.60;;;;;;;20.75;51.48;101353.03;5135128;27;20169;-67
2022/05/15 09:43:36;;;;;;;9.20;4.33;;;;;;;21.14;51.57;101350.03;5133944;27;20169;-67
2022/05/15 09:46:27;;;;;;;4.87;3.97;;;;;;;21.13;50.76;101342.16;5134472;27;20218;-67
2022/05/15 09:49:06;;;;;;;6.43;5.10;;;;;;;21.20;50.98;101342.56;5121919;27;20228;-67
2022/05/15 09:51:38;;;;;;;5.30;4.70;;;;;;;21.29;50.86;101344.53;5134645;27;20225;-67
2022/05/15 09:54:04;;;;;;;5.20;4.63;;;;;;;21.24;49.95;101344.03;5134618;27;20185;-67
2022/05/15 09:56:34;;;;;;;4.43;4.10;;;;;;;21.26;49.44;101342.94;5134377;27;20188;-67
2022/05/15 09:59:10;;;;;;;4.20;3.90;;;;;;;21.27;49.16;101343.78;5134712;27;20204;-66
2022/05/15 10:01:55;;;;;;;4.93;4.20;;;;;;;21.22;49.80;101340.63;5134590;27;20187;-66
2022/05/15 10:04:24;;;;;;;5.40;4.73;;;;;;;21.32;48.54;101347.00;5134826;28;20179;-66
2022/05/15 10:06:57;;;;;;;4.93;4.40;;;;;;;21.34;49.32;101339.72;5135038;28;20184;-66
2022/05/15 10:09:33;;;;;;;10.40;4.67;;;;;;;21.42;51.32;101335.50;5134339;28;20689;-67
2022/05/15 10:12:06;;;;;;;4.70;4.27;;;;;;;21.53;49.89;101334.69;5134504;28;20683;-67
2022/05/15 10:14:50;;;;;;;4.27;3.97;;;;;;;21.49;51.88;101327.03;5134446;28;20175;-67
2022/05/15 10:17:20;;;;;;;4.77;4.47;;;;;;;21.67;48.91;101326.47;5134544;28;20180;-67
2022/05/15 10:20:04;;;;;;;5.33;4.83;;;;;;;21.54;46.43;101331.03;5133975;28;20196;-67
2022/05/15 10:22:45;;;;;;;4.53;4.30;;;;;;;21.54;47.51;101324.88;5134426;28;20528;-67
2022/05/15 10:25:34;;;;;;;4.57;4.37;;;;;;;21.54;47.49;101322.19;5134541;28;20173;-67
2022/05/15 10:28:15;;;;;;;5.13;4.80;;;;;;;21.52;49.22;101321.47;5134324;28;20168;-67
2022/05/15 10:31:00;;;;;;;7.40;4.23;;;;;;;21.61;48.88;101320.75;5134402;28;20192;-67
2022/05/15 10:33:35;;;;;;;10.30;5.70;;;;;;;21.70;47.80;101320.88;5133973;28;20203;-67
2022/05/15 10:36:29;;;;;;;7.57;3.83;;;;;;;21.73;47.91;101321.63;5134187;28;20586;-67
2022/05/15 10:39:41;;;;;;;4.23;4.10;;;;;;;21.90;46.41;101318.47;5134151;28;20201;-67
2022/05/15 10:42:27;;;;;;;5.00;4.37;;;;;;;21.93;47.19;101312.88;5095275;28;20556;-67
2022/05/15 10:45:04;;;;;;;5.63;4.47;;;;;;;21.95;46.44;101305.63;5133447;28;20173;-68
2022/05/15 10:47:50;;;;;;;4.17;3.97;;;;;;;21.88;46.77;101310.59;5120242;28;20185;-67
2022/05/15 10:50:31;;;;;;;4.50;3.80;;;;;;;21.86;47.19;101309.00;5131214;28;20204;-67
2022/05/15 10:57:21;;;;;;;5.97;3.60;;;;;;;22.09;47.46;101294.72;5086117;27;20205;-69
2022/05/15 11:00:02;;;;;;;4.57;3.40;;;;;;;22.08;47.71;101287.69;5061118;28;20267;-67
2022/05/15 11:02:45;;;;;;;5.93;4.50;;;;;;;22.16;47.18;101282.59;5131808;27;20289;-67
2022/05/15 11:05:20;;;;;;;3.97;3.77;;;;;;;22.13;47.07;101280.16;5131841;27;20208;-68
2022/05/15 11:08:17;;;;;;;9.23;4.07;;;;;;;22.10;45.28;101280.41;5137510;27;20168;-67
2022/05/15 11:10:52;;;;;;;4.67;4.40;;;;;;;22.08;45.79;101277.03;5137602;27;20230;-67
2022/05/15 11:13:21;;;;;;;4.83;4.60;;;;;;;22.16;46.34;101273.75;5137635;27;20176;-67
2022/05/15 11:16:13;;;;;;;6.37;3.80;;;;;;;22.14;46.67;101271.19;5137265;27;20184;-67
2022/05/15 11:18:55;;;;;;;4.03;3.83;;;;;;;22.17;46.38;101259.44;5137628;27;20235;-67
2022/05/15 11:21:45;;;;;;;5.60;4.67;;;;;;;22.17;46.39;101265.59;5137749;27;20181;-67
2022/05/15 11:24:31;;;;;;;10.20;4.10;;;;;;;22.23;47.75;101265.13;5137379;27;20183;-67
2022/05/15 11:27:11;;;;;;;3.80;3.73;;;;;;;22.30;46.32;101273.47;5137059;27;20606;-67
2022/05/15 11:29:44;;;;;;;6.13;3.40;;;;;;;22.24;46.47;101265.97;5137098;27;20565;-67
2022/05/15 11:32:29;;;;;;;3.03;2.93;;;;;;;22.19;46.21;101260.13;5136981;27;20222;-67
2022/05/15 11:35:16;;;;;;;4.93;4.53;;;;;;;22.34;45.03;101258.03;5136926;27;20189;-67
2022/05/15 11:38:28;;;;;;;4.87;4.40;;;;;;;22.28;47.50;101254.03;5137476;27;20183;-67
2022/05/15 11:40:55;;;;;;;5.40;4.20;;;;;;;22.40;47.64;101260.19;5125236;27;20715;-67
2022/05/15 11:43:30;;;;;;;4.03;3.60;;;;;;;22.49;46.09;101254.09;5136701;27;20191;-67
2022/05/15 11:45:59;;;;;;;8.23;2.97;;;;;;;22.43;43.96;101252.81;5136964;27;20622;-67
2022/05/15 11:48:37;;;;;;;12.40;3.53;;;;;;;22.50;41.19;101250.44;5136564;27;20208;-68
2022/05/15 11:51:22;;;;;;;5.57;2.77;;;;;;;22.52;39.15;101251.19;5137127;27;20193;-67
2022/05/15 11:54:00;;;;;;;3.87;3.57;;;;;;;22.71;39.40;101246.00;5137069;27;20256;-67
2022/05/15 11:56:40;;;;;;;4.80;2.93;;;;;;;22.70;39.79;101244.31;5136529;27;20180;-67
2022/05/15 11:59:21;;;;;;;5.60;3.00;;;;;;;22.76;43.40;101233.09;5136343;27;20690;-67
2022/05/15 12:02:03;;;;;;;4.10;3.83;;;;;;;22.90;43.62;101231.97;5136460;27;20181;-67